Contact Us:
Email: info@sawbill.com
Phone: (218)663-7150
Fax: (218)663-7980
Mail: 4620 Sawbill Trail
Box 2129
Tofte, MN 55615


Powered by
Movable Type 3.15
 
Sawbill Weather History Archives: August 2011
Current Sawbill Weather History | « July 2011 | September 2011 »


Date

High
Temperature

Low
Temperature

Barometric
Pressure

Relative
Humidity 7AM

9 AM
Temperature

Moisture

Snow

8/31/11 61 59 29.83 98% 61 .12"
8/30/11 72 52 29.88 92% 59 .03"
8/29/11 78 52 29.88 71% 52 0
8/28/11 70 48 29.83 75% 58 0
8/27/11 71 48 29.91 69% 48 0
8/26/11 77 52 29.91 67% 52 .02"
8/25/11 67 56 29.83 92% 57 .03"
8/24/11 67 44 29.92 96% 49 .02"
8/23/11 77 57 29.44 61% 64 0
8/22/11 75 57 29.77 88% 59 .2"
8/21/11 66 46 29.91 74% 46 0
8/20/11 68 51 29.83 91% 51 .13"
8/19/11 69 50 29.83 80% 51 Trace
8/18/11 76 58 29.68 98% 63 .79"
8/17/11 73 58 29.83 76% 58 0
8/16/11 76 58 29.83 82% 58 .05"
8/15/11 79 60 29.88 85% 60 .04"
8/14/11 76 52 29.88 84% 61 0
8/13/11 73 52 29.97 82% 52 .08"
8/12/11 73 58 29.85 90% 59 .09"
8/11/11 78 51 29.80 88% 60 .04"
8/10/11 76 48 29.92 82% 58 0
8/9/11 62 51 29.71 90% 52 .18"
8/8/11 73 53 29.72 82% 56 .18"
8/7/11 73 53 29.68 81% 53 0
8/6/11 74 62 29.74 98% 62 .38"
8/5/11 84 63 29.80 81% 64 0
8/4/11 84 56 29.88 82% 65 0
8/3/11 84 59 29.92 71% 64 Trace
8/2/11 78 60 29.80 72% 61 Trace
8/1/11 82 59 29.68 95% 66 .38"
 


Home I Trip Planning I Rentals and Outfitting I Reservations I Campgrounds I Sawbill Store I Sawbill News I Contact

© 1997 - 2017, Sawbill Canoe Outfitters, Inc. I Privacy Policy